sensor_id;sensor_type;location;lat;lon;timestamp;pressure;altitude;pressure_sealevel;temperature;humidity
12077;BME280;12420;42.676;23.262;2023-08-08T00:00:29;94481.06;;;16.81;100.00
12077;BME280;12420;42.676;23.262;2023-08-08T00:02:56;94485.16;;;16.80;100.00
12077;BME280;12420;42.676;23.262;2023-08-08T00:05:23;94491.03;;;16.66;100.00
12077;BME280;12420;42.676;23.262;2023-08-08T00:07:49;94483.09;;;16.55;100.00
12077;BME280;12420;42.676;23.262;2023-08-08T00:10:18;94483.28;;;16.57;100.00
12077;BME280;12420;42.676;23.262;2023-08-08T00:12:44;94491.88;;;16.52;100.00
12077;BME280;12420;42.676;23.262;2023-08-08T00:15:11;94493.88;;;16.59;100.00
12077;BME280;12420;42.676;23.262;2023-08-08T00:17:38;94469.19;;;16.22;100.00
12077;BME280;12420;42.676;23.262;2023-08-08T00:20:06;94492.91;;;16.39;100.00
12077;BME280;12420;42.676;23.262;2023-08-08T00:22:33;94488.34;;;16.26;100.00
12077;BME280;12420;42.676;23.262;2023-08-08T00:25:00;94483.19;;;16.15;100.00
12077;BME280;12420;42.676;23.262;2023-08-08T00:27:28;94487.38;;;16.31;100.00
12077;BME280;12420;42.676;23.262;2023-08-08T00:29:55;94499.94;;;16.15;100.00
12077;BME280;12420;42.676;23.262;2023-08-08T00:32:22;94498.47;;;16.14;100.00
12077;BME280;12420;42.676;23.262;2023-08-08T00:34:49;94506.84;;;16.14;100.00
12077;BME280;12420;42.676;23.262;2023-08-08T00:37:15;94502.75;;;16.40;100.00
12077;BME280;12420;42.676;23.262;2023-08-08T00:39:42;94485.81;;;16.38;100.00
12077;BME280;12420;42.676;23.262;2023-08-08T00:42:11;94491.06;;;16.59;100.00
12077;BME280;12420;42.676;23.262;2023-08-08T00:44:40;94500.81;;;16.75;100.00
12077;BME280;12420;42.676;23.262;2023-08-08T00:47:07;94506.03;;;16.79;100.00
12077;BME280;12420;42.676;23.262;2023-08-08T00:49:35;94515.53;;;17.01;100.00
12077;BME280;12420;42.676;23.262;2023-08-08T00:52:03;94519.09;;;17.19;100.00
12077;BME280;12420;42.676;23.262;2023-08-08T00:54:30;94526.75;;;17.18;100.00
12077;BME280;12420;42.676;23.262;2023-08-08T00:56:57;94496.81;;;17.28;100.00
12077;BME280;12420;42.676;23.262;2023-08-08T00:59:24;94522.22;;;17.57;100.00
12077;BME280;12420;42.676;23.262;2023-08-08T01:01:53;94524.13;;;17.72;100.00
12077;BME280;12420;42.676;23.262;2023-08-08T01:04:22;94525.69;;;17.83;100.00
12077;BME280;12420;42.676;23.262;2023-08-08T01:06:58;94506.44;;;17.70;100.00
12077;BME280;12420;42.676;23.262;2023-08-08T01:09:31;94539.03;;;17.75;100.00
12077;BME280;12420;42.676;23.262;2023-08-08T01:12:00;94509.41;;;17.37;100.00
12077;BME280;12420;42.676;23.262;2023-08-08T01:14:29;94537.63;;;17.66;100.00
12077;BME280;12420;42.676;23.262;2023-08-08T01:17:00;94537.22;;;17.52;100.00
12077;BME280;12420;42.676;23.262;2023-08-08T01:19:29;94532.03;;;17.66;100.00
12077;BME280;12420;42.676;23.262;2023-08-08T01:22:01;94537.94;;;17.18;100.00
12077;BME280;12420;42.676;23.262;2023-08-08T01:24:30;94532.25;;;17.08;100.00
12077;BME280;12420;42.676;23.262;2023-08-08T01:27:00;94524.59;;;17.09;100.00
12077;BME280;12420;42.676;23.262;2023-08-08T01:29:27;94527.44;;;16.76;100.00
12077;BME280;12420;42.676;23.262;2023-08-08T01:31:54;94528.03;;;16.49;100.00
12077;BME280;12420;42.676;23.262;2023-08-08T01:34:21;94540.50;;;16.48;100.00
12077;BME280;12420;42.676;23.262;2023-08-08T01:36:54;94557.09;;;16.46;100.00
12077;BME280;12420;42.676;23.262;2023-08-08T01:39:25;94569.81;;;16.40;100.00
12077;BME280;12420;42.676;23.262;2023-08-08T01:41:54;94570.44;;;15.90;100.00
12077;BME280;12420;42.676;23.262;2023-08-08T01:44:22;94559.28;;;15.67;100.00
12077;BME280;12420;42.676;23.262;2023-08-08T01:46:51;94564.50;;;15.78;100.00
12077;BME280;12420;42.676;23.262;2023-08-08T01:49:18;94570.44;;;15.67;100.00
12077;BME280;12420;42.676;23.262;2023-08-08T01:51:45;94569.75;;;15.59;100.00
12077;BME280;12420;42.676;23.262;2023-08-08T01:54:12;94567.72;;;15.44;100.00
12077;BME280;12420;42.676;23.262;2023-08-08T01:56:39;94566.44;;;15.45;100.00
12077;BME280;12420;42.676;23.262;2023-08-08T01:59:07;94580.34;;;15.60;100.00
12077;BME280;12420;42.676;23.262;2023-08-08T02:01:34;94567.72;;;15.44;100.00
12077;BME280;12420;42.676;23.262;2023-08-08T02:04:00;94584.59;;;15.77;100.00
12077;BME280;12420;42.676;23.262;2023-08-08T02:06:27;94586.03;;;15.93;100.00
12077;BME280;12420;42.676;23.262;2023-08-08T02:08:55;94562.25;;;15.84;100.00
12077;BME280;12420;42.676;23.262;2023-08-08T02:11:21;94573.31;;;16.08;100.00
12077;BME280;12420;42.676;23.262;2023-08-08T02:13:48;94571.84;;;16.06;100.00
12077;BME280;12420;42.676;23.262;2023-08-08T02:16:16;94580.88;;;16.22;100.00
12077;BME280;12420;42.676;23.262;2023-08-08T02:18:43;94535.97;;;15.95;100.00
12077;BME280;12420;42.676;23.262;2023-08-08T02:21:10;94592.88;;;16.40;100.00
12077;BME280;12420;42.676;23.262;2023-08-08T02:23:37;94597.59;;;16.63;100.00
12077;BME280;12420;42.676;23.262;2023-08-08T02:26:03;94577.97;;;16.45;100.00
12077;BME280;12420;42.676;23.262;2023-08-08T02:28:30;94619.16;;;16.78;100.00
12077;BME280;12420;42.676;23.262;2023-08-08T02:30:57;94616.59;;;16.64;100.00
12077;BME280;12420;42.676;23.262;2023-08-08T02:33:25;94614.28;;;16.78;100.00
12077;BME280;12420;42.676;23.262;2023-08-08T02:35:52;94573.97;;;16.31;100.00
12077;BME280;12420;42.676;23.262;2023-08-08T02:38:19;94596.22;;;16.46;100.00
12077;BME280;12420;42.676;23.262;2023-08-08T02:40:45;94609.56;;;16.56;100.00
12077;BME280;12420;42.676;23.262;2023-08-08T02:43:12;94618.22;;;16.42;100.00
12077;BME280;12420;42.676;23.262;2023-08-08T02:45:39;94608.41;;;16.34;100.00
12077;BME280;12420;42.676;23.262;2023-08-08T02:48:06;94607.53;;;16.48;100.00
12077;BME280;12420;42.676;23.262;2023-08-08T02:50:34;94626.41;;;16.73;100.00
12077;BME280;12420;42.676;23.262;2023-08-08T02:53:01;94631.59;;;16.84;100.00
12077;BME280;12420;42.676;23.262;2023-08-08T02:55:28;94598.19;;;16.54;100.00
12077;BME280;12420;42.676;23.262;2023-08-08T02:57:54;94646.22;;;17.00;100.00
12077;BME280;12420;42.676;23.262;2023-08-08T03:00:21;94647.41;;;17.14;100.00
12077;BME280;12420;42.676;23.262;2023-08-08T03:02:48;94645.25;;;17.05;100.00
12077;BME280;12420;42.676;23.262;2023-08-08T03:05:15;94627.88;;;17.07;100.00
12077;BME280;12420;42.676;23.262;2023-08-08T03:07:43;94638.78;;;16.95;100.00
12077;BME280;12420;42.676;23.262;2023-08-08T03:10:09;94632.00;;;17.06;100.00
12077;BME280;12420;42.676;23.262;2023-08-08T03:12:37;94640.94;;;17.04;100.00
12077;BME280;12420;42.676;23.262;2023-08-08T03:15:05;94639.47;;;17.03;100.00
12077;BME280;12420;42.676;23.262;2023-08-08T03:17:32;94655.41;;;17.18;100.00
12077;BME280;12420;42.676;23.262;2023-08-08T03:20:00;94641.25;;;17.16;100.00
12077;BME280;12420;42.676;23.262;2023-08-08T03:22:30;94642.78;;;17.09;100.00
12077;BME280;12420;42.676;23.262;2023-08-08T03:24:59;94641.91;;;16.99;100.00
12077;BME280;12420;42.676;23.262;2023-08-08T03:27:25;94652.13;;;17.04;100.00
12077;BME280;12420;42.676;23.262;2023-08-08T03:29:52;94631.56;;;16.52;100.00
12077;BME280;12420;42.676;23.262;2023-08-08T03:32:19;94650.72;;;16.96;100.00
12077;BME280;12420;42.676;23.262;2023-08-08T03:34:46;94613.59;;;16.70;100.00
12077;BME280;12420;42.676;23.262;2023-08-08T03:37:13;94627.84;;;16.89;100.00
12077;BME280;12420;42.676;23.262;2023-08-08T03:39:39;94638.38;;;16.66;100.00
12077;BME280;12420;42.676;23.262;2023-08-08T03:42:08;94649.25;;;16.95;100.00
12077;BME280;12420;42.676;23.262;2023-08-08T03:44:35;94633.31;;;16.80;100.00
12077;BME280;12420;42.676;23.262;2023-08-08T03:47:02;94649.75;;;17.01;100.00
12077;BME280;12420;42.676;23.262;2023-08-08T03:49:28;94657.06;;;17.21;100.00
12077;BME280;12420;42.676;23.262;2023-08-08T03:51:55;94637.72;;;17.16;100.00
12077;BME280;12420;42.676;23.262;2023-08-08T03:54:22;94643.75;;;17.29;100.00
12077;BME280;12420;42.676;23.262;2023-08-08T03:56:48;94648.03;;;17.55;100.00
12077;BME280;12420;42.676;23.262;2023-08-08T03:59:16;94645.16;;;17.63;100.00
12077;BME280;12420;42.676;23.262;2023-08-08T04:01:43;94651.25;;;17.69;100.00
12077;BME280;12420;42.676;23.262;2023-08-08T04:04:10;94656.19;;;17.78;100.00
12077;BME280;12420;42.676;23.262;2023-08-08T04:06:37;94676.81;;;17.91;100.00
12077;BME280;12420;42.676;23.262;2023-08-08T04:09:03;94662.66;;;17.89;100.00
12077;BME280;12420;42.676;23.262;2023-08-08T04:11:30;94676.81;;;17.91;100.00
12077;BME280;12420;42.676;23.262;2023-08-08T04:13:58;94684.28;;;17.88;100.00
12077;BME280;12420;42.676;23.262;2023-08-08T04:16:28;94689.28;;;17.72;100.00
12077;BME280;12420;42.676;23.262;2023-08-08T04:18:54;94685.13;;;17.81;100.00
12077;BME280;12420;42.676;23.262;2023-08-08T04:21:21;94681.97;;;17.77;100.00
12077;BME280;12420;42.676;23.262;2023-08-08T04:23:48;94675.78;;;17.78;100.00
12077;BME280;12420;42.676;23.262;2023-08-08T04:26:15;94702.97;;;17.86;100.00
12077;BME280;12420;42.676;23.262;2023-08-08T04:28:42;94689.63;;;17.76;100.00
12077;BME280;12420;42.676;23.262;2023-08-08T04:31:09;94694.69;;;17.95;100.00
12077;BME280;12420;42.676;23.262;2023-08-08T04:33:37;94692.88;;;17.90;100.00
12077;BME280;12420;42.676;23.262;2023-08-08T04:36:06;94698.72;;;18.02;100.00
12077;BME280;12420;42.676;23.262;2023-08-08T04:38:34;94690.81;;;18.08;100.00
12077;BME280;12420;42.676;23.262;2023-08-08T04:41:01;94691.66;;;18.18;100.00
12077;BME280;12420;42.676;23.262;2023-08-08T04:43:28;94674.34;;;18.30;100.00
12077;BME280;12420;42.676;23.262;2023-08-08T04:45:54;94684.13;;;18.38;100.00
12077;BME280;12420;42.676;23.262;2023-08-08T04:48:21;94685.38;;;18.45;100.00
12077;BME280;12420;42.676;23.262;2023-08-08T04:50:50;94688.75;;;18.26;100.00
12077;BME280;12420;42.676;23.262;2023-08-08T04:53:26;94679.13;;;18.19;100.00
12077;BME280;12420;42.676;23.262;2023-08-08T04:55:52;94720.81;;;18.33;100.00
12077;BME280;12420;42.676;23.262;2023-08-08T04:58:19;94716.78;;;18.26;100.00
12077;BME280;12420;42.676;23.262;2023-08-08T05:00:48;94747.50;;;18.16;100.00
12077;BME280;12420;42.676;23.262;2023-08-08T05:03:16;94727.13;;;17.56;100.00
12077;BME280;12420;42.676;23.262;2023-08-08T05:05:43;94742.28;;;17.20;100.00
12077;BME280;12420;42.676;23.262;2023-08-08T05:08:16;94739.03;;;16.99;100.00
12077;BME280;12420;42.676;23.262;2023-08-08T05:10:45;94746.25;;;16.69;100.00
12077;BME280;12420;42.676;23.262;2023-08-08T05:13:12;94717.41;;;16.51;100.00
12077;BME280;12420;42.676;23.262;2023-08-08T05:15:39;94759.47;;;16.68;100.00
12077;BME280;12420;42.676;23.262;2023-08-08T05:18:07;94761.03;;;16.46;100.00
12077;BME280;12420;42.676;23.262;2023-08-08T05:20:34;94752.25;;;16.58;100.00
12077;BME280;12420;42.676;23.262;2023-08-08T05:23:01;94756.72;;;16.53;100.00
12077;BME280;12420;42.676;23.262;2023-08-08T05:25:29;94758.09;;;16.37;100.00
12077;BME280;12420;42.676;23.262;2023-08-08T05:27:56;94755.28;;;16.44;100.00
12077;BME280;12420;42.676;23.262;2023-08-08T05:30:23;94749.69;;;16.44;100.00
12077;BME280;12420;42.676;23.262;2023-08-08T05:32:50;94770.88;;;16.55;100.00
12077;BME280;12420;42.676;23.262;2023-08-08T05:35:16;94785.72;;;16.73;100.00
12077;BME280;12420;42.676;23.262;2023-08-08T05:37:43;94770.47;;;16.66;100.00
12077;BME280;12420;42.676;23.262;2023-08-08T05:40:10;94800.03;;;16.92;100.00
12077;BME280;12420;42.676;23.262;2023-08-08T05:42:39;94798.72;;;16.93;100.00
12077;BME280;12420;42.676;23.262;2023-08-08T05:45:06;94801.31;;;16.91;100.00
12077;BME280;12420;42.676;23.262;2023-08-08T05:47:33;94786.44;;;16.81;100.00
12077;BME280;12420;42.676;23.262;2023-08-08T05:50:00;94803.22;;;16.81;100.00
12077;BME280;12420;42.676;23.262;2023-08-08T05:52:27;94781.53;;;16.41;100.00
12077;BME280;12420;42.676;23.262;2023-08-08T05:54:54;94785.41;;;16.54;100.00
12077;BME280;12420;42.676;23.262;2023-08-08T05:57:21;94796.72;;;16.79;100.00
12077;BME280;12420;42.676;23.262;2023-08-08T05:59:49;94817.03;;;16.79;100.00
12077;BME280;12420;42.676;23.262;2023-08-08T06:02:16;94835.31;;;16.65;100.00
12077;BME280;12420;42.676;23.262;2023-08-08T06:04:42;94823.06;;;16.45;100.00
12077;BME280;12420;42.676;23.262;2023-08-08T06:07:10;94821.72;;;16.54;100.00
12077;BME280;12420;42.676;23.262;2023-08-08T06:09:37;94809.63;;;16.51;100.00
12077;BME280;12420;42.676;23.262;2023-08-08T06:12:04;94816.50;;;16.58;100.00
12077;BME280;12420;42.676;23.262;2023-08-08T06:14:32;94814.03;;;16.77;100.00
12077;BME280;12420;42.676;23.262;2023-08-08T06:17:00;94792.06;;;16.66;100.00
12077;BME280;12420;42.676;23.262;2023-08-08T06:19:26;94821.72;;;17.17;100.00
12077;BME280;12420;42.676;23.262;2023-08-08T06:21:53;94806.50;;;17.43;100.00
12077;BME280;12420;42.676;23.262;2023-08-08T06:24:20;94795.44;;;17.45;100.00
12077;BME280;12420;42.676;23.262;2023-08-08T06:26:47;94803.22;;;17.87;100.00
12077;BME280;12420;42.676;23.262;2023-08-08T06:29:14;94799.28;;;17.90;100.00
12077;BME280;12420;42.676;23.262;2023-08-08T06:31:41;94811.28;;;17.75;100.00
12077;BME280;12420;42.676;23.262;2023-08-08T06:34:09;94824.09;;;17.94;100.00
12077;BME280;12420;42.676;23.262;2023-08-08T06:36:36;94800.84;;;17.84;100.00
12077;BME280;12420;42.676;23.262;2023-08-08T06:39:03;94800.78;;;17.91;100.00
12077;BME280;12420;42.676;23.262;2023-08-08T06:41:31;94805.84;;;17.52;100.00
12077;BME280;12420;42.676;23.262;2023-08-08T06:43:58;94800.63;;;17.56;100.00
12077;BME280;12420;42.676;23.262;2023-08-08T06:46:24;94814.59;;;17.56;100.00
12077;BME280;12420;42.676;23.262;2023-08-08T06:48:51;94809.16;;;17.33;100.00
12077;BME280;12420;42.676;23.262;2023-08-08T06:51:25;94705.16;;;16.46;100.00
12077;BME280;12420;42.676;23.262;2023-08-08T06:53:52;94811.78;;;17.31;100.00
12077;BME280;12420;42.676;23.262;2023-08-08T06:56:19;94788.19;;;17.09;100.00
12077;BME280;12420;42.676;23.262;2023-08-08T06:58:46;94814.94;;;17.35;100.00
12077;BME280;12420;42.676;23.262;2023-08-08T07:01:13;94829.84;;;17.38;100.00
12077;BME280;12420;42.676;23.262;2023-08-08T07:03:41;94797.56;;;16.97;100.00
12077;BME280;12420;42.676;23.262;2023-08-08T07:06:10;94808.69;;;17.12;100.00
12077;BME280;12420;42.676;23.262;2023-08-08T07:08:40;94828.63;;;17.16;100.00
12077;BME280;12420;42.676;23.262;2023-08-08T07:11:06;94803.63;;;17.18;100.00
12077;BME280;12420;42.676;23.262;2023-08-08T07:13:33;94781.34;;;17.03;100.00
12077;BME280;12420;42.676;23.262;2023-08-08T07:16:00;94823.72;;;17.24;100.00
12077;BME280;12420;42.676;23.262;2023-08-08T07:18:27;94817.88;;;17.38;100.00
12077;BME280;12420;42.676;23.262;2023-08-08T07:20:54;94805.66;;;16.85;100.00
12077;BME280;12420;42.676;23.262;2023-08-08T07:23:22;94750.16;;;16.66;100.00
12077;BME280;12420;42.676;23.262;2023-08-08T07:25:50;94814.00;;;16.92;100.00
12077;BME280;12420;42.676;23.262;2023-08-08T07:28:17;94693.84;;;16.37;100.00
12077;BME280;12420;42.676;23.262;2023-08-08T07:30:43;94815.47;;;17.34;100.00
12077;BME280;12420;42.676;23.262;2023-08-08T07:33:10;94828.09;;;17.43;100.00
12077;BME280;12420;42.676;23.262;2023-08-08T07:35:39;94834.47;;;17.43;100.00
12077;BME280;12420;42.676;23.262;2023-08-08T07:38:05;94807.81;;;17.67;100.00
12077;BME280;12420;42.676;23.262;2023-08-08T07:40:33;94816.47;;;17.87;100.00
12077;BME280;12420;42.676;23.262;2023-08-08T07:43:01;94811.41;;;17.60;100.00
12077;BME280;12420;42.676;23.262;2023-08-08T07:45:28;94826.22;;;17.53;100.00
12077;BME280;12420;42.676;23.262;2023-08-08T07:47:55;94849.47;;;17.63;100.00
12077;BME280;12420;42.676;23.262;2023-08-08T07:50:21;94832.22;;;17.74;100.00
12077;BME280;12420;42.676;23.262;2023-08-08T07:52:48;94812.59;;;17.49;100.00
12077;BME280;12420;42.676;23.262;2023-08-08T07:55:15;94805.47;;;17.56;100.00
12077;BME280;12420;42.676;23.262;2023-08-08T07:57:43;94820.25;;;17.49;100.00
12077;BME280;12420;42.676;23.262;2023-08-08T08:00:13;94828.38;;;17.62;100.00
12077;BME280;12420;42.676;23.262;2023-08-08T08:02:44;94830.75;;;17.73;100.00
12077;BME280;12420;42.676;23.262;2023-08-08T08:05:12;94819.53;;;17.73;100.00
12077;BME280;12420;42.676;23.262;2023-08-08T08:07:40;94826.00;;;18.09;100.00
12077;BME280;12420;42.676;23.262;2023-08-08T08:10:08;94803.44;;;18.07;100.00
12077;BME280;12420;42.676;23.262;2023-08-08T08:12:39;94817.84;;;18.03;100.00
12077;BME280;12420;42.676;23.262;2023-08-08T08:15:07;94826.50;;;18.40;100.00
12077;BME280;12420;42.676;23.262;2023-08-08T08:17:36;94818.25;;;18.59;100.00
12077;BME280;12420;42.676;23.262;2023-08-08T08:20:03;94801.75;;;18.46;99.60
12077;BME280;12420;42.676;23.262;2023-08-08T08:22:36;94844.97;;;18.60;96.95
12077;BME280;12420;42.676;23.262;2023-08-08T08:25:03;94761.84;;;18.20;95.89
12077;BME280;12420;42.676;23.262;2023-08-08T08:27:30;94767.38;;;18.46;96.18
12077;BME280;12420;42.676;23.262;2023-08-08T08:29:57;94818.28;;;18.94;96.07
12077;BME280;12420;42.676;23.262;2023-08-08T08:32:24;94823.97;;;18.86;96.00
12077;BME280;12420;42.676;23.262;2023-08-08T08:34:54;94835.53;;;18.91;98.05
12077;BME280;12420;42.676;23.262;2023-08-08T08:37:21;94818.34;;;18.69;98.63
12077;BME280;12420;42.676;23.262;2023-08-08T08:39:48;94829.25;;;18.82;97.90
12077;BME280;12420;42.676;23.262;2023-08-08T08:42:15;94823.03;;;18.66;95.03
12077;BME280;12420;42.676;23.262;2023-08-08T08:44:43;94831.44;;;18.66;99.16
12077;BME280;12420;42.676;23.262;2023-08-08T08:47:12;94824.38;;;18.65;98.57
12077;BME280;12420;42.676;23.262;2023-08-08T08:49:42;94827.34;;;18.68;100.00
12077;BME280;12420;42.676;23.262;2023-08-08T08:52:10;94830.16;;;18.85;99.61
12077;BME280;12420;42.676;23.262;2023-08-08T08:54:38;94825.69;;;18.47;94.83
12077;BME280;12420;42.676;23.262;2023-08-08T08:57:05;94820.38;;;18.51;98.94
12077;BME280;12420;42.676;23.262;2023-08-08T08:59:32;94820.38;;;18.34;99.03
12077;BME280;12420;42.676;23.262;2023-08-08T09:01:59;94812.88;;;18.54;97.12
12077;BME280;12420;42.676;23.262;2023-08-08T09:04:28;94815.66;;;18.79;96.29
12077;BME280;12420;42.676;23.262;2023-08-08T09:06:55;94820.81;;;18.82;97.54
12077;BME280;12420;42.676;23.262;2023-08-08T09:09:24;94841.28;;;18.93;94.86
12077;BME280;12420;42.676;23.262;2023-08-08T09:11:52;94834.38;;;18.76;93.76
12077;BME280;12420;42.676;23.262;2023-08-08T09:14:21;94816.69;;;18.49;94.62
12077;BME280;12420;42.676;23.262;2023-08-08T09:16:49;94798.97;;;18.63;96.55
12077;BME280;12420;42.676;23.262;2023-08-08T09:19:17;94802.84;;;18.68;96.17
12077;BME280;12420;42.676;23.262;2023-08-08T09:21:44;94835.25;;;18.61;98.18
12077;BME280;12420;42.676;23.262;2023-08-08T09:24:11;94837.06;;;18.66;97.42
12077;BME280;12420;42.676;23.262;2023-08-08T09:26:40;94826.91;;;18.54;99.19
12077;BME280;12420;42.676;23.262;2023-08-08T09:29:08;94847.13;;;18.52;98.98
12077;BME280;12420;42.676;23.262;2023-08-08T09:31:35;94804.34;;;18.09;99.22
12077;BME280;12420;42.676;23.262;2023-08-08T09:34:03;94833.41;;;18.39;98.90
12077;BME280;12420;42.676;23.262;2023-08-08T09:36:30;94828.91;;;18.61;98.10
12077;BME280;12420;42.676;23.262;2023-08-08T09:38:57;94798.78;;;18.61;94.62
12077;BME280;12420;42.676;23.262;2023-08-08T09:41:24;94821.22;;;18.61;92.72
12077;BME280;12420;42.676;23.262;2023-08-08T09:43:53;94811.16;;;18.41;90.53
12077;BME280;12420;42.676;23.262;2023-08-08T09:46:21;94818.25;;;18.59;91.37
12077;BME280;12420;42.676;23.262;2023-08-08T09:48:48;94829.63;;;18.61;92.60
12077;BME280;12420;42.676;23.262;2023-08-08T09:51:17;94823.16;;;18.34;93.19
12077;BME280;12420;42.676;23.262;2023-08-08T09:53:46;94847.53;;;18.66;91.89
12077;BME280;12420;42.676;23.262;2023-08-08T09:56:15;94842.13;;;18.85;90.63
12077;BME280;12420;42.676;23.262;2023-08-08T09:58:42;94814.16;;;18.78;91.03
12077;BME280;12420;42.676;23.262;2023-08-08T10:01:10;94823.06;;;18.84;90.40
12077;BME280;12420;42.676;23.262;2023-08-08T10:03:38;94836.16;;;19.16;90.25
12077;BME280;12420;42.676;23.262;2023-08-08T10:06:07;94839.97;;;19.38;90.86
12077;BME280;12420;42.676;23.262;2023-08-08T10:08:35;94800.44;;;19.44;86.71
12077;BME280;12420;42.676;23.262;2023-08-08T10:11:02;94808.75;;;19.51;88.76
12077;BME280;12420;42.676;23.262;2023-08-08T10:13:29;94825.66;;;19.88;88.47
12077;BME280;12420;42.676;23.262;2023-08-08T10:15:56;94842.91;;;20.22;87.07
12077;BME280;12420;42.676;23.262;2023-08-08T10:18:27;94764.06;;;19.36;87.33
12077;BME280;12420;42.676;23.262;2023-08-08T10:20:54;94836.56;;;19.84;88.31
12077;BME280;12420;42.676;23.262;2023-08-08T10:23:20;94821.44;;;19.70;88.05
12077;BME280;12420;42.676;23.262;2023-08-08T10:25:49;94769.28;;;19.49;86.81
12077;BME280;12420;42.676;23.262;2023-08-08T10:28:19;94845.06;;;20.04;87.79
12077;BME280;12420;42.676;23.262;2023-08-08T10:30:48;94823.91;;;19.93;85.09
12077;BME280;12420;42.676;23.262;2023-08-08T10:33:16;94778.63;;;19.52;87.55
12077;BME280;12420;42.676;23.262;2023-08-08T10:35:54;94779.25;;;19.60;86.56
12077;BME280;12420;42.676;23.262;2023-08-08T10:38:23;94826.31;;;20.06;87.24
12077;BME280;12420;42.676;23.262;2023-08-08T10:40:55;94830.75;;;20.09;85.76
12077;BME280;12420;42.676;23.262;2023-08-08T10:43:25;94831.34;;;20.08;86.44
12077;BME280;12420;42.676;23.262;2023-08-08T10:45:53;94835.25;;;20.32;85.46
12077;BME280;12420;42.676;23.262;2023-08-08T10:48:23;94806.75;;;19.99;86.16
12077;BME280;12420;42.676;23.262;2023-08-08T10:50:53;94818.06;;;20.18;87.80
12077;BME280;12420;42.676;23.262;2023-08-08T10:53:22;94809.56;;;19.99;87.31
12077;BME280;12420;42.676;23.262;2023-08-08T10:55:57;94798.66;;;20.03;86.35
12077;BME280;12420;42.676;23.262;2023-08-08T10:58:34;94820.31;;;19.83;86.97
12077;BME280;12420;42.676;23.262;2023-08-08T11:01:02;94762.47;;;19.70;87.12
12077;BME280;12420;42.676;23.262;2023-08-08T11:03:30;94783.06;;;19.82;86.61
12077;BME280;12420;42.676;23.262;2023-08-08T11:05:59;94818.06;;;20.18;86.68
12077;BME280;12420;42.676;23.262;2023-08-08T11:08:26;94797.22;;;19.84;87.13
12077;BME280;12420;42.676;23.262;2023-08-08T11:10:53;94811.56;;;20.15;86.95
12077;BME280;12420;42.676;23.262;2023-08-08T11:13:21;94818.16;;;20.01;87.78
12077;BME280;12420;42.676;23.262;2023-08-08T11:15:48;94819.25;;;20.15;86.86
12077;BME280;12420;42.676;23.262;2023-08-08T11:18:15;94812.03;;;20.31;86.04
12077;BME280;12420;42.676;23.262;2023-08-08T11:20:41;94800.19;;;20.23;84.88
12077;BME280;12420;42.676;23.262;2023-08-08T11:23:10;94808.00;;;20.15;85.79
12077;BME280;12420;42.676;23.262;2023-08-08T11:25:40;94810.34;;;20.75;84.80
12077;BME280;12420;42.676;23.262;2023-08-08T11:28:08;94770.66;;;20.80;84.24
12077;BME280;12420;42.676;23.262;2023-08-08T11:30:38;94809.56;;;21.33;83.82
12077;BME280;12420;42.676;23.262;2023-08-08T11:33:05;94806.50;;;20.90;82.84
12077;BME280;12420;42.676;23.262;2023-08-08T11:35:32;94810.66;;;20.79;83.37
12077;BME280;12420;42.676;23.262;2023-08-08T11:38:01;94746.19;;;20.25;83.21
12077;BME280;12420;42.676;23.262;2023-08-08T11:40:31;94735.97;;;20.29;83.54
12077;BME280;12420;42.676;23.262;2023-08-08T11:42:58;94718.97;;;20.37;82.15
12077;BME280;12420;42.676;23.262;2023-08-08T11:45:26;94792.38;;;21.29;79.96
12077;BME280;12420;42.676;23.262;2023-08-08T11:47:55;94745.19;;;20.98;78.52
12077;BME280;12420;42.676;23.262;2023-08-08T11:50:23;94726.25;;;20.79;78.07
12077;BME280;12420;42.676;23.262;2023-08-08T11:52:51;94789.38;;;21.56;76.82
12077;BME280;12420;42.676;23.262;2023-08-08T11:55:19;94792.78;;;21.54;76.15
12077;BME280;12420;42.676;23.262;2023-08-08T11:57:50;94790.75;;;21.45;76.05
12077;BME280;12420;42.676;23.262;2023-08-08T12:00:18;94773.69;;;21.33;75.43
12077;BME280;12420;42.676;23.262;2023-08-08T12:02:45;94731.88;;;20.79;74.96
12077;BME280;12420;42.676;23.262;2023-08-08T12:05:14;94727.16;;;20.81;75.53
12077;BME280;12420;42.676;23.262;2023-08-08T12:07:42;94767.47;;;21.44;74.45
12077;BME280;12420;42.676;23.262;2023-08-08T12:10:17;94768.31;;;21.57;73.78
12077;BME280;12420;42.676;23.262;2023-08-08T12:12:45;94781.50;;;21.95;74.42
12077;BME280;12420;42.676;23.262;2023-08-08T12:15:14;94779.72;;;21.68;72.99
12077;BME280;12420;42.676;23.262;2023-08-08T12:17:42;94775.19;;;21.85;72.23
12077;BME280;12420;42.676;23.262;2023-08-08T12:20:10;94774.19;;;22.11;71.57
12077;BME280;12420;42.676;23.262;2023-08-08T12:22:37;94752.38;;;21.81;72.84
12077;BME280;12420;42.676;23.262;2023-08-08T12:25:04;94696.03;;;20.99;73.02
12077;BME280;12420;42.676;23.262;2023-08-08T12:27:31;94759.84;;;21.66;73.11
12077;BME280;12420;42.676;23.262;2023-08-08T12:29:58;94746.59;;;21.79;72.96
12077;BME280;12420;42.676;23.262;2023-08-08T12:32:27;94650.72;;;20.95;71.74
12077;BME280;12420;42.676;23.262;2023-08-08T12:34:56;94742.66;;;21.62;71.81
12077;BME280;12420;42.676;23.262;2023-08-08T12:37:24;94739.03;;;21.81;72.29
12077;BME280;12420;42.676;23.262;2023-08-08T12:39:50;94752.84;;;22.08;72.44
12077;BME280;12420;42.676;23.262;2023-08-08T12:42:20;94747.72;;;22.17;71.93
12077;BME280;12420;42.676;23.262;2023-08-08T12:44:47;94767.31;;;22.15;70.50